createdAt,value
2022-11-20T07:35:01.658Z,0.06
2022-11-20T07:40:22.731Z,0.32
2022-11-20T07:45:43.527Z,0.14
2022-11-20T07:51:04.395Z,0.06
2022-11-20T07:56:25.151Z,0.07
2022-11-20T08:01:45.935Z,0.05
2022-11-20T08:07:06.711Z,0.08
2022-11-20T08:12:45.898Z,0.15
2022-11-20T08:23:53.339Z,0.28
2022-11-20T08:29:14.155Z,0.33
2022-11-20T08:34:35.330Z,0.43
2022-11-20T08:39:57.954Z,0.58
2022-11-20T08:45:19.925Z,0.61
2022-11-20T08:50:40.921Z,0.60
2022-11-20T08:56:01.825Z,0.69
2022-11-20T09:01:24.459Z,0.78
2022-11-20T09:06:45.548Z,0.75
2022-11-20T09:12:06.447Z,0.81
2022-11-20T09:17:27.279Z,0.95
2022-11-20T09:22:48.008Z,1.17
2022-11-20T09:28:09.088Z,1.19
2022-11-20T09:33:30.034Z,1.24
2022-11-20T09:38:50.917Z,1.38
2022-11-20T09:44:48.862Z,1.43
2022-11-20T09:50:36.091Z,1.51
2022-11-20T09:55:57.597Z,1.60
2022-11-20T10:01:20.791Z,1.59
2022-11-20T10:06:59.677Z,1.79
2022-11-20T10:12:51.884Z,2.00
2022-11-20T10:18:20.781Z,2.15
2022-11-20T10:24:04.840Z,2.37
2022-11-20T10:29:48.830Z,2.75
2022-11-20T10:35:42.966Z,3.15
2022-11-20T10:41:25.010Z,3.17
2022-11-20T10:46:46.369Z,3.08
2022-11-20T10:52:22.579Z,3.31
2022-11-20T10:57:46.749Z,3.37
2022-11-20T11:03:34.177Z,3.08
2022-11-20T11:08:59.737Z,2.59
2022-11-20T11:14:20.467Z,2.43
2022-11-20T11:19:41.438Z,2.35
2022-11-20T11:25:02.984Z,2.26
2022-11-20T11:30:25.687Z,2.13
2022-11-20T11:35:51.735Z,2.10
2022-11-20T11:41:23.928Z,2.07
2022-11-20T11:46:53.807Z,1.97
2022-11-20T11:52:18.275Z,1.82
2022-11-20T11:57:45.407Z,1.70
2022-11-20T12:03:44.843Z,1.48
2022-11-20T12:09:10.971Z,1.30
2022-11-20T12:14:37.987Z,1.03
2022-11-20T12:19:58.732Z,0.85
2022-11-20T12:25:28.445Z,0.75
2022-11-20T12:31:12.201Z,0.69
2022-11-20T12:36:39.582Z,0.59
2022-11-20T12:42:48.403Z,0.55
2022-11-20T12:48:33.248Z,0.50
2022-11-20T12:54:28.345Z,0.49
2022-11-20T13:00:11.787Z,0.48
2022-11-20T13:05:41.970Z,0.42
2022-11-20T13:11:27.705Z,0.42
2022-11-20T13:16:55.728Z,0.43
2022-11-20T13:22:45.375Z,0.43
2022-11-20T13:28:30.775Z,0.42
2022-11-20T13:33:55.710Z,0.35
2022-11-20T13:39:29.586Z,0.36
2022-11-20T13:45:02.849Z,0.29
2022-11-20T13:50:49.088Z,0.25
2022-11-20T13:56:38.256Z,0.20
2022-11-20T14:01:59.458Z,0.15
2022-11-20T14:07:22.925Z,0.10
2022-11-20T14:12:43.611Z,0.14
2022-11-20T14:18:15.248Z,0.14
2022-11-20T14:23:35.863Z,0.12
2022-11-20T14:28:56.821Z,0.10
2022-11-20T14:34:21.377Z,0.08
2022-11-20T14:39:49.414Z,0.08
2022-11-20T14:45:13.213Z,0.07
2022-11-20T14:50:34.703Z,0.05
2022-11-20T14:56:01.330Z,-0.01
2022-11-20T15:01:28.467Z,-0.04
2022-11-20T15:06:55.128Z,-0.07
2022-11-20T15:12:18.690Z,-0.09
2022-11-20T15:17:41.771Z,-0.09
2022-11-20T15:23:02.749Z,-0.09
2022-11-20T15:28:48.816Z,-0.10
2022-11-20T15:34:15.567Z,-0.13
2022-11-20T15:39:36.321Z,-0.13
2022-11-20T15:44:57.307Z,-0.16
2022-11-20T15:50:18.813Z,-0.15
2022-11-20T15:55:39.918Z,-0.17
2022-11-20T16:01:00.757Z,-0.19
2022-11-20T16:06:21.610Z,-0.18
2022-11-20T16:11:42.372Z,-0.22
2022-11-20T16:17:04.060Z,-0.19
2022-11-20T16:22:24.705Z,-0.22
2022-11-20T16:27:45.619Z,-0.19
2022-11-20T16:33:13.230Z,-0.21
2022-11-20T16:38:34.401Z,-0.21
2022-11-20T16:44:00.302Z,-0.23
2022-11-20T16:49:21.464Z,-0.24
2022-11-20T16:54:42.166Z,-0.26
2022-11-20T17:00:04.232Z,-0.27
2022-11-20T17:05:24.893Z,-0.27
2022-11-20T17:10:45.738Z,-0.27
2022-11-20T17:16:15.825Z,-0.28
2022-11-20T17:21:37.876Z,-0.28
2022-11-20T17:26:58.607Z,-0.28
2022-11-20T17:32:19.458Z,-0.27
2022-11-20T17:37:40.489Z,-0.27
2022-11-20T17:43:01.340Z,-0.29
2022-11-20T17:48:22.312Z,-0.30
2022-11-20T17:53:45.030Z,-0.32
2022-11-20T17:59:07.506Z,-0.35
2022-11-20T18:04:28.337Z,-0.35
2022-11-20T18:09:49.209Z,-0.38
2022-11-20T18:15:10.057Z,-0.39
2022-11-20T18:20:35.163Z,-0.40
2022-11-20T18:26:00.712Z,-0.39
2022-11-20T18:31:21.937Z,-0.41
2022-11-20T18:36:42.985Z,-0.44
2022-11-20T18:42:22.716Z,-0.44
2022-11-20T18:47:44.064Z,-0.46
2022-11-20T18:53:04.922Z,-0.45
2022-11-20T18:58:28.072Z,-0.46
2022-11-20T19:03:49.308Z,-0.46
2022-11-20T19:09:12.475Z,-0.49
2022-11-20T19:14:33.470Z,-0.50
2022-11-20T19:19:55.303Z,-0.51
2022-11-20T19:25:16.222Z,-0.49
2022-11-20T19:30:36.926Z,-0.51
2022-11-20T19:35:58.587Z,-0.50
2022-11-20T19:41:31.641Z,-0.51
2022-11-20T19:46:52.653Z,-0.50
2022-11-20T19:52:13.492Z,-0.51
2022-11-20T19:57:34.395Z,-0.50
2022-11-20T20:02:55.175Z,-0.51
2022-11-20T20:08:17.038Z,-0.54
2022-11-20T20:13:38.415Z,-0.52
2022-11-20T20:19:01.783Z,-0.53
2022-11-20T20:24:22.830Z,-0.55
2022-11-20T20:29:43.686Z,-0.55
2022-11-20T20:35:05.974Z,-0.54
2022-11-20T20:40:26.696Z,-0.54
2022-11-20T20:45:49.263Z,-0.53
2022-11-20T20:51:10.093Z,-0.54
2022-11-20T20:56:31.072Z,-0.55
2022-11-20T21:01:51.907Z,-0.54
2022-11-20T21:07:12.715Z,-0.56
